ARG1547 SACO-SABE
Flight info
| Callsign | ARG1547 |
|---|---|
| Flight time | 0h 52m |
| Altitude | 39000 |
| Route | UTRAX1C UTRAX UW24 SNT SNT8Q |
| Aircraft | B738/M-MSDFGHILRVWS/LB1 |
Departure
| Time | 2026-05-06 22:54 |
|---|---|
| Airport | Ingeniero Aeronáutico Ambrosio L.V. Taravella International Airport (SACO) |
Arrival
| Time | 2026-05-06 23:46 |
|---|---|
| Airport | Aeroparque Jorge Newbery (SABE) |
| Time | Latitude | Longitude | Altitude | Speed | Heading |
|---|---|---|---|---|---|
| 2026-05-06 22:17 | -31.31612 | -64.21166 | 1612 ft | 0 kts | 268° |
| 2026-05-06 22:18 | -31.31612 | -64.21168 | 1612 ft | 0 kts | 268° |
| 2026-05-06 22:19 | -31.31552 | -64.21170 | 1612 ft | 0 kts | 259° |
| 2026-05-06 22:45 | -31.31550 | -64.21155 | 1621 ft | 4 kts | 258° |
| 2026-05-06 22:45 | -31.31545 | -64.21134 | 1621 ft | 3 kts | 233° |
| 2026-05-06 22:45 | -31.31554 | -64.21129 | 1612 ft | 4 kts | 174° |
| 2026-05-06 22:46 | -31.31534 | -64.21124 | 1612 ft | 4 kts | 224° |
| 2026-05-06 22:46 | -31.31518 | -64.21100 | 1612 ft | 4 kts | 253° |
| 2026-05-06 22:46 | -31.31516 | -64.21077 | 1612 ft | 4 kts | 210° |
| 2026-05-06 22:46 | -31.31516 | -64.21075 | 1612 ft | 0 kts | 188° |
| 2026-05-06 22:49 | -31.31519 | -64.21076 | 1612 ft | 2 kts | 188° |
| 2026-05-06 22:49 | -31.31553 | -64.21090 | 1617 ft | 9 kts | 207° |
| 2026-05-06 22:49 | -31.31632 | -64.21101 | 1615 ft | 13 kts | 179° |
| 2026-05-06 22:50 | -31.31722 | -64.21094 | 1618 ft | 13 kts | 156° |
| 2026-05-06 22:50 | -31.31794 | -64.21032 | 1615 ft | 13 kts | 160° |
| 2026-05-06 22:50 | -31.31882 | -64.21028 | 1618 ft | 13 kts | 180° |
| 2026-05-06 22:50 | -31.31969 | -64.21028 | 1618 ft | 12 kts | 178° |
| 2026-05-06 22:51 | -31.32053 | -64.21025 | 1614 ft | 12 kts | 179° |
| 2026-05-06 22:51 | -31.32136 | -64.21024 | 1613 ft | 12 kts | 179° |
| 2026-05-06 22:51 | -31.32216 | -64.21022 | 1619 ft | 11 kts | 179° |
| 2026-05-06 22:51 | -31.32306 | -64.21020 | 1618 ft | 15 kts | 179° |
| 2026-05-06 22:52 | -31.32412 | -64.20994 | 1619 ft | 16 kts | 135° |
| 2026-05-06 22:52 | -31.32439 | -64.20878 | 1612 ft | 13 kts | 90° |
| 2026-05-06 22:52 | -31.32438 | -64.20816 | 1615 ft | 4 kts | 68° |
| 2026-05-06 22:52 | -31.32422 | -64.20813 | 1620 ft | 0 kts | 357° |
| 2026-05-06 22:53 | -31.32419 | -64.20813 | 1611 ft | 1 kts | 357° |
| 2026-05-06 22:53 | -31.32309 | -64.20816 | 1613 ft | 49 kts | 360° |
| 2026-05-06 22:53 | -31.31704 | -64.20825 | 1616 ft | 121 kts | 359° |
| 2026-05-06 22:53 | -31.30749 | -64.20828 | 2033 ft | 139 kts | 1° |
| 2026-05-06 22:54 | -31.29722 | -64.20872 | 2596 ft | 157 kts | 355° |
| 2026-05-06 22:54 | -31.28587 | -64.20834 | 3255 ft | 171 kts | 7° |
| 2026-05-06 22:54 | -31.27408 | -64.20347 | 3929 ft | 190 kts | 25° |
| 2026-05-06 22:54 | -31.26332 | -64.19372 | 4796 ft | 197 kts | 44° |
| 2026-05-06 22:55 | -31.25516 | -64.18053 | 5685 ft | 208 kts | 55° |
| 2026-05-06 22:55 | -31.24794 | -64.16523 | 6459 ft | 217 kts | 65° |
| 2026-05-06 22:55 | -31.24271 | -64.14845 | 7275 ft | 227 kts | 72° |
| 2026-05-06 22:55 | -31.24016 | -64.13000 | 8041 ft | 235 kts | 86° |
| 2026-05-06 22:56 | -31.24169 | -64.11053 | 8657 ft | 247 kts | 111° |
| 2026-05-06 22:56 | -31.25015 | -64.09200 | 9075 ft | 275 kts | 127° |
| 2026-05-06 22:56 | -31.26143 | -64.07279 | 9650 ft | 294 kts | 128° |
| 2026-05-06 22:56 | -31.27332 | -64.05324 | 10501 ft | 300 kts | 130° |
| 2026-05-06 22:57 | -31.28600 | -64.03398 | 11570 ft | 297 kts | 136° |
| 2026-05-06 22:57 | -31.30053 | -64.01627 | 12360 ft | 310 kts | 141° |
| 2026-05-06 22:57 | -31.31694 | -63.99810 | 12773 ft | 339 kts | 142° |
| 2026-05-06 22:57 | -31.33493 | -63.97885 | 13220 ft | 364 kts | 143° |
| 2026-05-06 22:58 | -31.35418 | -63.95833 | 13773 ft | 382 kts | 142° |
| 2026-05-06 22:58 | -31.37372 | -63.93666 | 14616 ft | 390 kts | 141° |
| 2026-05-06 22:58 | -31.39333 | -63.91445 | 15543 ft | 395 kts | 140° |
| 2026-05-06 22:58 | -31.41328 | -63.89190 | 16438 ft | 403 kts | 140° |
| 2026-05-06 22:59 | -31.43366 | -63.86898 | 17317 ft | 409 kts | 140° |
| 2026-05-06 22:59 | -31.45435 | -63.84576 | 18187 ft | 415 kts | 140° |
| 2026-05-06 22:59 | -31.47497 | -63.82262 | 18963 ft | 420 kts | 140° |
| 2026-05-06 22:59 | -31.49632 | -63.79874 | 19773 ft | 426 kts | 140° |
| 2026-05-06 23:00 | -31.51794 | -63.77458 | 20579 ft | 431 kts | 140° |
| 2026-05-06 23:00 | -31.53978 | -63.75016 | 21344 ft | 437 kts | 140° |
| 2026-05-06 23:00 | -31.56191 | -63.72538 | 22113 ft | 441 kts | 140° |
| 2026-05-06 23:00 | -31.58412 | -63.70046 | 22978 ft | 444 kts | 140° |
| 2026-05-06 23:01 | -31.60659 | -63.67524 | 23629 ft | 449 kts | 140° |
| 2026-05-06 23:01 | -31.62932 | -63.64974 | 24201 ft | 456 kts | 140° |
| 2026-05-06 23:01 | -31.65255 | -63.62385 | 24771 ft | 462 kts | 140° |
| 2026-05-06 23:01 | -31.67613 | -63.59779 | 25374 ft | 467 kts | 140° |
| 2026-05-06 23:02 | -31.69959 | -63.57191 | 25962 ft | 471 kts | 140° |
| 2026-05-06 23:02 | -31.72355 | -63.54543 | 26531 ft | 475 kts | 140° |
| 2026-05-06 23:02 | -31.74766 | -63.51866 | 27017 ft | 478 kts | 142° |
| 2026-05-06 23:02 | -31.77250 | -63.49211 | 27370 ft | 487 kts | 139° |
| 2026-05-06 23:03 | -31.79693 | -63.46421 | 27900 ft | 492 kts | 139° |
| 2026-05-06 23:03 | -31.81334 | -63.44566 | 28373 ft | 492 kts | 140° |
| 2026-05-06 23:03 | -31.83822 | -63.41789 | 29080 ft | 493 kts | 141° |
| 2026-05-06 23:03 | -31.86367 | -63.39048 | 29483 ft | 498 kts | 140° |
| 2026-05-06 23:04 | -31.88899 | -63.36189 | 29839 ft | 508 kts | 137° |
| 2026-05-06 23:04 | -31.91294 | -63.33091 | 30326 ft | 515 kts | 132° |
| 2026-05-06 23:04 | -31.93500 | -63.29770 | 30808 ft | 517 kts | 128° |
| 2026-05-06 23:04 | -31.95659 | -63.26355 | 31145 ft | 523 kts | 128° |
| 2026-05-06 23:05 | -31.97858 | -63.22909 | 31424 ft | 528 kts | 130° |
| 2026-05-06 23:05 | -32.00147 | -63.19515 | 31805 ft | 532 kts | 130° |
| 2026-05-06 23:05 | -32.02425 | -63.16071 | 32282 ft | 534 kts | 130° |
| 2026-05-06 23:05 | -32.04696 | -63.12641 | 32716 ft | 530 kts | 130° |
| 2026-05-06 23:06 | -32.06996 | -63.09194 | 32853 ft | 537 kts | 131° |
| 2026-05-06 23:06 | -32.09334 | -63.05751 | 33279 ft | 538 kts | 131° |
| 2026-05-06 23:06 | -32.11663 | -63.02293 | 33745 ft | 538 kts | 131° |
| 2026-05-06 23:06 | -32.13964 | -62.98811 | 34179 ft | 537 kts | 130° |
| 2026-05-06 23:07 | -32.16269 | -62.95322 | 34505 ft | 540 kts | 131° |
| 2026-05-06 23:07 | -32.18596 | -62.91831 | 34934 ft | 541 kts | 131° |
| 2026-05-06 23:07 | -32.20908 | -62.88359 | 35535 ft | 537 kts | 130° |
| 2026-05-06 23:07 | -32.23175 | -62.84953 | 36015 ft | 532 kts | 132° |
| 2026-05-06 23:08 | -32.25472 | -62.81513 | 36358 ft | 534 kts | 131° |
| 2026-05-06 23:08 | -32.27783 | -62.78037 | 36557 ft | 540 kts | 131° |
| 2026-05-06 23:08 | -32.30115 | -62.74522 | 36779 ft | 544 kts | 131° |
| 2026-05-06 23:08 | -32.32457 | -62.70989 | 37027 ft | 548 kts | 131° |
| 2026-05-06 23:09 | -32.34813 | -62.67433 | 37368 ft | 549 kts | 131° |
| 2026-05-06 23:09 | -32.37166 | -62.63879 | 37833 ft | 548 kts | 131° |
| 2026-05-06 23:09 | -32.39512 | -62.60331 | 38325 ft | 546 kts | 131° |
| 2026-05-06 23:09 | -32.41852 | -62.56791 | 38643 ft | 546 kts | 131° |
| 2026-05-06 23:10 | -32.44198 | -62.53241 | 38652 ft | 548 kts | 131° |
| 2026-05-06 23:10 | -32.48884 | -62.46138 | 38652 ft | 545 kts | 131° |
| 2026-05-06 23:11 | -32.53539 | -62.39068 | 38666 ft | 543 kts | 131° |
| 2026-05-06 23:11 | -32.58155 | -62.32047 | 38659 ft | 543 kts | 131° |
| 2026-05-06 23:12 | -32.62795 | -62.24971 | 38661 ft | 542 kts | 131° |
| 2026-05-06 23:12 | -32.67425 | -62.17901 | 38650 ft | 541 kts | 131° |
| 2026-05-06 23:13 | -32.71911 | -62.10760 | 38680 ft | 543 kts | 128° |
| 2026-05-06 23:13 | -32.76185 | -62.03341 | 38667 ft | 544 kts | 126° |
| 2026-05-06 23:14 | -32.80446 | -61.95893 | 38653 ft | 544 kts | 127° |
| 2026-05-06 23:14 | -32.84737 | -61.88481 | 38646 ft | 543 kts | 127° |
| 2026-05-06 23:15 | -32.89037 | -61.81099 | 38688 ft | 543 kts | 127° |
| 2026-05-06 23:15 | -32.93347 | -61.73692 | 38657 ft | 544 kts | 127° |
| 2026-05-06 23:16 | -32.97642 | -61.66280 | 38650 ft | 544 kts | 127° |
| 2026-05-06 23:16 | -33.01906 | -61.58904 | 38653 ft | 543 kts | 127° |
| 2026-05-06 23:17 | -33.06188 | -61.51481 | 38656 ft | 543 kts | 127° |
| 2026-05-06 23:17 | -33.10461 | -61.44062 | 38653 ft | 542 kts | 127° |
| 2026-05-06 23:18 | -33.14728 | -61.36640 | 38649 ft | 542 kts | 127° |
| 2026-05-06 23:18 | -33.18990 | -61.29212 | 38384 ft | 544 kts | 127° |
| 2026-05-06 23:18 | -33.21124 | -61.25486 | 37891 ft | 542 kts | 127° |
| 2026-05-06 23:19 | -33.23243 | -61.21779 | 37311 ft | 539 kts | 127° |
| 2026-05-06 23:19 | -33.25351 | -61.18091 | 36779 ft | 535 kts | 127° |
| 2026-05-06 23:19 | -33.27417 | -61.14476 | 36314 ft | 531 kts | 126° |
| 2026-05-06 23:19 | -33.29491 | -61.10838 | 35782 ft | 528 kts | 126° |
| 2026-05-06 23:20 | -33.31535 | -61.07215 | 35266 ft | 524 kts | 126° |
| 2026-05-06 23:20 | -33.33570 | -61.03601 | 34653 ft | 524 kts | 126° |
| 2026-05-06 23:20 | -33.35575 | -60.99960 | 33984 ft | 525 kts | 123° |
| 2026-05-06 23:20 | -33.37402 | -60.96162 | 33209 ft | 527 kts | 119° |
| 2026-05-06 23:21 | -33.39114 | -60.92306 | 32645 ft | 523 kts | 117° |
| 2026-05-06 23:21 | -33.40769 | -60.88451 | 32161 ft | 517 kts | 117° |
| 2026-05-06 23:21 | -33.42396 | -60.84647 | 31696 ft | 510 kts | 117° |
| 2026-05-06 23:21 | -33.44011 | -60.80899 | 31259 ft | 503 kts | 117° |
| 2026-05-06 23:22 | -33.45600 | -60.77255 | 30834 ft | 496 kts | 118° |
| 2026-05-06 23:22 | -33.47201 | -60.73620 | 30397 ft | 490 kts | 118° |
| 2026-05-06 23:22 | -33.48792 | -60.70031 | 29928 ft | 486 kts | 118° |
| 2026-05-06 23:22 | -33.50377 | -60.66462 | 29391 ft | 482 kts | 118° |
| 2026-05-06 23:23 | -33.51944 | -60.62932 | 28917 ft | 476 kts | 118° |
| 2026-05-06 23:23 | -33.53487 | -60.59453 | 28457 ft | 469 kts | 118° |
| 2026-05-06 23:23 | -33.55007 | -60.56020 | 28039 ft | 463 kts | 118° |
| 2026-05-06 23:23 | -33.56504 | -60.52634 | 27609 ft | 457 kts | 118° |
| 2026-05-06 23:24 | -33.57984 | -60.49282 | 27194 ft | 451 kts | 118° |
| 2026-05-06 23:24 | -33.59441 | -60.45977 | 26754 ft | 446 kts | 118° |
| 2026-05-06 23:24 | -33.60882 | -60.42707 | 26371 ft | 440 kts | 118° |
| 2026-05-06 23:24 | -33.62302 | -60.39479 | 25970 ft | 435 kts | 118° |
| 2026-05-06 23:25 | -33.63710 | -60.36276 | 25565 ft | 431 kts | 118° |
| 2026-05-06 23:25 | -33.65100 | -60.33114 | 25168 ft | 427 kts | 117° |
| 2026-05-06 23:25 | -33.66477 | -60.29974 | 24803 ft | 423 kts | 117° |
| 2026-05-06 23:25 | -33.67824 | -60.26903 | 24411 ft | 420 kts | 117° |
| 2026-05-06 23:26 | -33.69177 | -60.23815 | 24010 ft | 417 kts | 117° |
| 2026-05-06 23:26 | -33.70522 | -60.20743 | 23601 ft | 414 kts | 117° |
| 2026-05-06 23:26 | -33.71858 | -60.17687 | 23205 ft | 411 kts | 117° |
| 2026-05-06 23:26 | -33.73181 | -60.14657 | 22740 ft | 408 kts | 117° |
| 2026-05-06 23:27 | -33.74494 | -60.11651 | 22327 ft | 404 kts | 117° |
| 2026-05-06 23:27 | -33.75789 | -60.08682 | 21936 ft | 399 kts | 117° |
| 2026-05-06 23:27 | -33.77071 | -60.05739 | 21552 ft | 396 kts | 117° |
| 2026-05-06 23:27 | -33.78350 | -60.02803 | 21175 ft | 395 kts | 117° |
| 2026-05-06 23:28 | -33.79625 | -59.99872 | 20798 ft | 396 kts | 117° |
| 2026-05-06 23:28 | -33.80913 | -59.96908 | 20430 ft | 405 kts | 117° |
| 2026-05-06 23:28 | -33.82228 | -59.93892 | 20011 ft | 407 kts | 117° |
| 2026-05-06 23:28 | -33.83610 | -59.90925 | 19528 ft | 406 kts | 119° |
| 2026-05-06 23:29 | -33.85026 | -59.88011 | 19097 ft | 401 kts | 120° |
| 2026-05-06 23:29 | -33.86435 | -59.85146 | 18720 ft | 396 kts | 120° |
| 2026-05-06 23:29 | -33.87826 | -59.82310 | 18341 ft | 391 kts | 120° |
| 2026-05-06 23:29 | -33.89198 | -59.79497 | 17951 ft | 388 kts | 120° |
| 2026-05-06 23:30 | -33.90534 | -59.76740 | 17526 ft | 384 kts | 119° |
| 2026-05-06 23:30 | -33.91885 | -59.73937 | 17121 ft | 380 kts | 119° |
| 2026-05-06 23:30 | -33.93187 | -59.71231 | 16741 ft | 375 kts | 119° |
| 2026-05-06 23:30 | -33.94485 | -59.68523 | 16366 ft | 372 kts | 119° |
| 2026-05-06 23:31 | -33.95772 | -59.65835 | 16008 ft | 368 kts | 119° |
| 2026-05-06 23:31 | -33.97046 | -59.63173 | 15637 ft | 365 kts | 119° |
| 2026-05-06 23:31 | -33.98306 | -59.60538 | 15269 ft | 362 kts | 119° |
| 2026-05-06 23:31 | -33.99557 | -59.57918 | 14902 ft | 359 kts | 119° |
| 2026-05-06 23:32 | -34.00797 | -59.55320 | 14546 ft | 357 kts | 120° |
| 2026-05-06 23:32 | -34.02036 | -59.52722 | 14193 ft | 356 kts | 120° |
| 2026-05-06 23:32 | -34.03278 | -59.50117 | 13819 ft | 361 kts | 120° |
| 2026-05-06 23:32 | -34.04519 | -59.47513 | 13450 ft | 364 kts | 120° |
| 2026-05-06 23:33 | -34.05783 | -59.44853 | 13045 ft | 367 kts | 119° |
| 2026-05-06 23:33 | -34.07066 | -59.42154 | 12641 ft | 364 kts | 119° |
| 2026-05-06 23:33 | -34.08317 | -59.39523 | 12266 ft | 359 kts | 119° |
| 2026-05-06 23:33 | -34.09537 | -59.36955 | 11924 ft | 355 kts | 119° |
| 2026-05-06 23:34 | -34.10757 | -59.34384 | 11547 ft | 352 kts | 118° |
| 2026-05-06 23:34 | -34.11972 | -59.31830 | 11183 ft | 348 kts | 118° |
| 2026-05-06 23:34 | -34.13169 | -59.29305 | 10808 ft | 345 kts | 118° |
| 2026-05-06 23:34 | -34.14353 | -59.26806 | 10466 ft | 341 kts | 118° |
| 2026-05-06 23:35 | -34.15525 | -59.24328 | 10120 ft | 338 kts | 118° |
| 2026-05-06 23:35 | -34.16677 | -59.21891 | 9934 ft | 330 kts | 118° |
| 2026-05-06 23:35 | -34.17801 | -59.19514 | 9787 ft | 321 kts | 117° |
| 2026-05-06 23:35 | -34.18894 | -59.17202 | 9620 ft | 313 kts | 117° |
| 2026-05-06 23:36 | -34.19971 | -59.14921 | 9323 ft | 310 kts | 117° |
| 2026-05-06 23:36 | -34.21037 | -59.12661 | 9027 ft | 308 kts | 117° |
| 2026-05-06 23:36 | -34.22096 | -59.10411 | 8726 ft | 307 kts | 117° |
| 2026-05-06 23:36 | -34.23149 | -59.08178 | 8421 ft | 304 kts | 117° |
| 2026-05-06 23:37 | -34.24180 | -59.05990 | 8141 ft | 303 kts | 117° |
| 2026-05-06 23:37 | -34.25222 | -59.03774 | 7823 ft | 303 kts | 117° |
| 2026-05-06 23:37 | -34.26260 | -59.01560 | 7519 ft | 303 kts | 116° |
| 2026-05-06 23:37 | -34.27303 | -58.99336 | 7211 ft | 304 kts | 116° |
| 2026-05-06 23:38 | -34.28342 | -58.97116 | 6898 ft | 303 kts | 116° |
| 2026-05-06 23:38 | -34.29382 | -58.94900 | 6596 ft | 304 kts | 117° |
| 2026-05-06 23:38 | -34.30432 | -58.92671 | 6290 ft | 305 kts | 116° |
| 2026-05-06 23:38 | -34.31476 | -58.90424 | 5963 ft | 306 kts | 116° |
| 2026-05-06 23:39 | -34.32524 | -58.88184 | 5630 ft | 305 kts | 116° |
| 2026-05-06 23:39 | -34.33570 | -58.85949 | 5312 ft | 305 kts | 116° |
| 2026-05-06 23:39 | -34.34618 | -58.83712 | 4981 ft | 306 kts | 116° |
| 2026-05-06 23:39 | -34.35664 | -58.81476 | 4678 ft | 304 kts | 116° |
| 2026-05-06 23:40 | -34.36702 | -58.79259 | 4395 ft | 302 kts | 116° |
| 2026-05-06 23:40 | -34.37726 | -58.77076 | 4114 ft | 300 kts | 116° |
| 2026-05-06 23:40 | -34.38747 | -58.74891 | 3841 ft | 297 kts | 115° |
| 2026-05-06 23:40 | -34.39760 | -58.72722 | 3567 ft | 295 kts | 115° |
| 2026-05-06 23:41 | -34.40762 | -58.70571 | 3391 ft | 289 kts | 114° |
| 2026-05-06 23:41 | -34.41743 | -58.68465 | 3260 ft | 284 kts | 114° |
| 2026-05-06 23:41 | -34.42701 | -58.66406 | 3123 ft | 278 kts | 113° |
| 2026-05-06 23:41 | -34.43641 | -58.64382 | 3015 ft | 271 kts | 113° |
| 2026-05-06 23:42 | -34.44556 | -58.62410 | 2902 ft | 265 kts | 112° |
| 2026-05-06 23:42 | -34.45467 | -58.60512 | 2880 ft | 253 kts | 115° |
| 2026-05-06 23:42 | -34.46388 | -58.58783 | 2904 ft | 235 kts | 117° |
| 2026-05-06 23:42 | -34.47281 | -58.57178 | 2769 ft | 225 kts | 117° |
| 2026-05-06 23:43 | -34.48127 | -58.55652 | 2505 ft | 217 kts | 116° |
| 2026-05-06 23:43 | -34.48948 | -58.54172 | 2266 ft | 204 kts | 115° |
| 2026-05-06 23:43 | -34.49708 | -58.52801 | 1969 ft | 188 kts | 114° |
| 2026-05-06 23:43 | -34.50441 | -58.51487 | 1712 ft | 189 kts | 113° |
| 2026-05-06 23:44 | -34.51170 | -58.50171 | 1579 ft | 187 kts | 112° |
| 2026-05-06 23:44 | -34.51886 | -58.48836 | 1344 ft | 191 kts | 112° |
| 2026-05-06 23:44 | -34.52627 | -58.47489 | 1078 ft | 189 kts | 115° |
| 2026-05-06 23:44 | -34.53365 | -58.46232 | 885 ft | 176 kts | 116° |
| 2026-05-06 23:45 | -34.53983 | -58.45029 | 646 ft | 159 kts | 118° |
| 2026-05-06 23:45 | -34.54584 | -58.43973 | 407 ft | 144 kts | 122° |
| 2026-05-06 23:45 | -34.55128 | -58.42994 | 178 ft | 140 kts | 123° |
| 2026-05-06 23:45 | -34.55650 | -58.42073 | 28 ft | 123 kts | 122° |
| 2026-05-06 23:46 | -34.56035 | -58.41377 | 25 ft | 69 kts | 123° |
| 2026-05-06 23:46 | -34.56201 | -58.41074 | 28 ft | 25 kts | 116° |
| 2026-05-06 23:46 | -34.56228 | -58.40953 | 25 ft | 9 kts | 96° |
| 2026-05-06 23:46 | -34.56235 | -58.40872 | 25 ft | 10 kts | 94° |
| 2026-05-06 23:47 | -34.56219 | -58.40818 | 29 ft | 6 kts | 7° |
| 2026-05-06 23:47 | -34.56185 | -58.40856 | 27 ft | 7 kts | 300° |
| 2026-05-06 23:47 | -34.56158 | -58.40916 | 25 ft | 9 kts | 296° |
| 2026-05-06 23:47 | -34.56123 | -58.40982 | 28 ft | 10 kts | 306° |
| 2026-05-06 23:48 | -34.56080 | -58.41053 | 25 ft | 11 kts | 307° |
| 2026-05-06 23:48 | -34.56030 | -58.41131 | 27 ft | 12 kts | 308° |
| 2026-05-06 23:48 | -34.56003 | -58.41173 | 29 ft | 9 kts | 307° |
| 2026-05-06 23:48 | -34.55963 | -58.41238 | 25 ft | 10 kts | 306° |
| 2026-05-06 23:49 | -34.55926 | -58.41303 | 25 ft | 8 kts | 309° |
| 2026-05-06 23:49 | -34.55886 | -58.41296 | 25 ft | 4 kts | 27° |
| 2026-05-06 23:49 | -34.55884 | -58.41294 | 25 ft | 1 kts | 27° |
| 2026-05-06 23:49 | -34.55865 | -58.41283 | 25 ft | 5 kts | 22° |
| 2026-05-06 23:50 | -34.55830 | -58.41298 | 25 ft | 6 kts | 307° |
| 2026-05-06 23:50 | -34.55788 | -58.41296 | 28 ft | 2 kts | 36° |
| 2026-05-06 23:50 | -34.55780 | -58.41289 | 25 ft | 0 kts | 36° |